sensor_id;sensor_type;location;lat;lon;timestamp;P1;durP1;ratioP1;P2;durP2;ratioP2
70467;SDS011;57934;51.532;7.684;2022-12-31T00:01:33;0.70;;;0.70;;
70467;SDS011;57934;51.532;7.684;2022-12-31T00:03:59;0.93;;;0.68;;
70467;SDS011;57934;51.532;7.684;2022-12-31T00:06:26;0.60;;;0.60;;
70467;SDS011;57934;51.532;7.684;2022-12-31T00:08:54;3.22;;;0.70;;
70467;SDS011;57934;51.532;7.684;2022-12-31T00:11:22;0.45;;;0.45;;
70467;SDS011;57934;51.532;7.684;2022-12-31T00:13:49;0.63;;;0.63;;
70467;SDS011;57934;51.532;7.684;2022-12-31T00:16:17;0.40;;;0.40;;
70467;SDS011;57934;51.532;7.684;2022-12-31T00:18:45;0.40;;;0.30;;
70467;SDS011;57934;51.532;7.684;2022-12-31T00:21:13;0.90;;;0.45;;
70467;SDS011;57934;51.532;7.684;2022-12-31T00:23:40;0.40;;;0.40;;
70467;SDS011;57934;51.532;7.684;2022-12-31T00:26:07;0.38;;;0.38;;
70467;SDS011;57934;51.532;7.684;2022-12-31T00:28:35;1.58;;;0.40;;
70467;SDS011;57934;51.532;7.684;2022-12-31T00:31:05;2.67;;;0.40;;
70467;SDS011;57934;51.532;7.684;2022-12-31T00:33:52;0.40;;;0.40;;
70467;SDS011;57934;51.532;7.684;2022-12-31T00:36:19;0.30;;;0.30;;
70467;SDS011;57934;51.532;7.684;2022-12-31T00:38:48;0.30;;;0.30;;
70467;SDS011;57934;51.532;7.684;2022-12-31T00:41:15;1.02;;;0.35;;
70467;SDS011;57934;51.532;7.684;2022-12-31T00:43:42;1.00;;;0.43;;
70467;SDS011;57934;51.532;7.684;2022-12-31T00:46:09;0.43;;;0.43;;
70467;SDS011;57934;51.532;7.684;2022-12-31T00:48:36;0.20;;;0.20;;
70467;SDS011;57934;51.532;7.684;2022-12-31T00:51:03;0.70;;;0.52;;
70467;SDS011;57934;51.532;7.684;2022-12-31T00:53:31;0.77;;;0.45;;
70467;SDS011;57934;51.532;7.684;2022-12-31T00:56:04;0.40;;;0.40;;
70467;SDS011;57934;51.532;7.684;2022-12-31T00:58:34;2.30;;;0.60;;
70467;SDS011;57934;51.532;7.684;2022-12-31T01:01:11;0.80;;;0.60;;
70467;SDS011;57934;51.532;7.684;2022-12-31T01:03:45;2.47;;;0.63;;
70467;SDS011;57934;51.532;7.684;2022-12-31T01:06:12;0.52;;;0.50;;
70467;SDS011;57934;51.532;7.684;2022-12-31T01:08:38;0.68;;;0.68;;
70467;SDS011;57934;51.532;7.684;2022-12-31T01:11:05;0.70;;;0.50;;
70467;SDS011;57934;51.532;7.684;2022-12-31T01:13:50;1.02;;;0.70;;
70467;SDS011;57934;51.532;7.684;2022-12-31T01:16:19;0.60;;;0.60;;
70467;SDS011;57934;51.532;7.684;2022-12-31T01:18:47;0.77;;;0.63;;
70467;SDS011;57934;51.532;7.684;2022-12-31T01:21:13;1.05;;;0.60;;
70467;SDS011;57934;51.532;7.684;2022-12-31T01:23:40;1.02;;;0.77;;
70467;SDS011;57934;51.532;7.684;2022-12-31T01:26:07;0.55;;;0.55;;
70467;SDS011;57934;51.532;7.684;2022-12-31T01:28:36;1.02;;;0.50;;
70467;SDS011;57934;51.532;7.684;2022-12-31T01:31:09;0.63;;;0.60;;
70467;SDS011;57934;51.532;7.684;2022-12-31T01:33:40;0.57;;;0.57;;
70467;SDS011;57934;51.532;7.684;2022-12-31T01:36:17;2.13;;;0.60;;
70467;SDS011;57934;51.532;7.684;2022-12-31T01:38:44;0.50;;;0.50;;
70467;SDS011;57934;51.532;7.684;2022-12-31T01:41:11;0.43;;;0.43;;
70467;SDS011;57934;51.532;7.684;2022-12-31T01:43:55;2.42;;;0.65;;
70467;SDS011;57934;51.532;7.684;2022-12-31T01:48:56;0.40;;;0.40;;
70467;SDS011;57934;51.532;7.684;2022-12-31T01:51:26;0.30;;;0.30;;
70467;SDS011;57934;51.532;7.684;2022-12-31T01:53:55;0.50;;;0.40;;
70467;SDS011;57934;51.532;7.684;2022-12-31T01:56:23;0.40;;;0.30;;
70467;SDS011;57934;51.532;7.684;2022-12-31T01:58:51;0.68;;;0.30;;
70467;SDS011;57934;51.532;7.684;2022-12-31T02:01:29;0.40;;;0.40;;
70467;SDS011;57934;51.532;7.684;2022-12-31T02:03:57;2.42;;;1.10;;
70467;SDS011;57934;51.532;7.684;2022-12-31T02:09:11;0.28;;;0.28;;
70467;SDS011;57934;51.532;7.684;2022-12-31T02:11:37;0.40;;;0.30;;
70467;SDS011;57934;51.532;7.684;2022-12-31T02:14:05;1.02;;;0.30;;
70467;SDS011;57934;51.532;7.684;2022-12-31T02:22:28;0.85;;;0.43;;
70467;SDS011;57934;51.532;7.684;2022-12-31T02:30:52;0.30;;;0.30;;
70467;SDS011;57934;51.532;7.684;2022-12-31T02:33:32;0.30;;;0.30;;
70467;SDS011;57934;51.532;7.684;2022-12-31T02:36:11;0.20;;;0.20;;
70467;SDS011;57934;51.532;7.684;2022-12-31T02:38:51;4.18;;;0.30;;
70467;SDS011;57934;51.532;7.684;2022-12-31T02:41:18;0.30;;;0.30;;
70467;SDS011;57934;51.532;7.684;2022-12-31T02:52:15;0.25;;;0.25;;
70467;SDS011;57934;51.532;7.684;2022-12-31T02:55:03;0.40;;;0.20;;
70467;SDS011;57934;51.532;7.684;2022-12-31T03:00:26;0.20;;;0.20;;
70467;SDS011;57934;51.532;7.684;2022-12-31T03:03:15;0.10;;;0.10;;
70467;SDS011;57934;51.532;7.684;2022-12-31T03:05:44;0.30;;;0.10;;
70467;SDS011;57934;51.532;7.684;2022-12-31T03:08:19;0.60;;;0.20;;
70467;SDS011;57934;51.532;7.684;2022-12-31T03:10:47;0.30;;;0.10;;
70467;SDS011;57934;51.532;7.684;2022-12-31T03:13:13;1.65;;;0.55;;
70467;SDS011;57934;51.532;7.684;2022-12-31T03:15:39;0.10;;;0.10;;
70467;SDS011;57934;51.532;7.684;2022-12-31T03:23:36;0.32;;;0.20;;
70467;SDS011;57934;51.532;7.684;2022-12-31T03:26:08;0.20;;;0.20;;
70467;SDS011;57934;51.532;7.684;2022-12-31T03:28:35;0.20;;;0.20;;
70467;SDS011;57934;51.532;7.684;2022-12-31T03:31:03;0.28;;;0.22;;
70467;SDS011;57934;51.532;7.684;2022-12-31T03:33:30;0.38;;;0.20;;
70467;SDS011;57934;51.532;7.684;2022-12-31T03:36:01;0.98;;;0.20;;
70467;SDS011;57934;51.532;7.684;2022-12-31T03:38:32;0.75;;;0.30;;
70467;SDS011;57934;51.532;7.684;2022-12-31T03:40:58;0.38;;;0.20;;
70467;SDS011;57934;51.532;7.684;2022-12-31T03:43:24;0.30;;;0.30;;
70467;SDS011;57934;51.532;7.684;2022-12-31T03:45:51;0.63;;;0.20;;
70467;SDS011;57934;51.532;7.684;2022-12-31T03:48:19;0.20;;;0.10;;
70467;SDS011;57934;51.532;7.684;2022-12-31T03:50:46;1.70;;;0.30;;
70467;SDS011;57934;51.532;7.684;2022-12-31T03:53:12;0.10;;;0.10;;
70467;SDS011;57934;51.532;7.684;2022-12-31T03:55:38;0.28;;;0.25;;
70467;SDS011;57934;51.532;7.684;2022-12-31T03:58:04;1.35;;;0.20;;
70467;SDS011;57934;51.532;7.684;2022-12-31T04:00:30;0.85;;;0.43;;
70467;SDS011;57934;51.532;7.684;2022-12-31T04:02:56;0.75;;;0.30;;
70467;SDS011;57934;51.532;7.684;2022-12-31T04:05:22;0.32;;;0.32;;
70467;SDS011;57934;51.532;7.684;2022-12-31T04:07:49;1.48;;;0.30;;
70467;SDS011;57934;51.532;7.684;2022-12-31T04:10:17;1.00;;;0.30;;
70467;SDS011;57934;51.532;7.684;2022-12-31T04:12:44;1.98;;;0.40;;
70467;SDS011;57934;51.532;7.684;2022-12-31T04:15:14;3.90;;;0.50;;
70467;SDS011;57934;51.532;7.684;2022-12-31T04:17:43;1.20;;;0.60;;
70467;SDS011;57934;51.532;7.684;2022-12-31T04:20:10;0.40;;;0.40;;
70467;SDS011;57934;51.532;7.684;2022-12-31T04:22:36;0.40;;;0.38;;
70467;SDS011;57934;51.532;7.684;2022-12-31T04:25:02;1.20;;;0.30;;
70467;SDS011;57934;51.532;7.684;2022-12-31T04:27:29;0.47;;;0.32;;
70467;SDS011;57934;51.532;7.684;2022-12-31T04:29:55;1.35;;;0.30;;
70467;SDS011;57934;51.532;7.684;2022-12-31T04:32:23;0.30;;;0.30;;
70467;SDS011;57934;51.532;7.684;2022-12-31T04:34:49;0.30;;;0.30;;
70467;SDS011;57934;51.532;7.684;2022-12-31T04:37:14;1.90;;;0.30;;
70467;SDS011;57934;51.532;7.684;2022-12-31T04:39:40;0.50;;;0.40;;
70467;SDS011;57934;51.532;7.684;2022-12-31T04:42:06;0.30;;;0.30;;
70467;SDS011;57934;51.532;7.684;2022-12-31T04:44:32;0.52;;;0.40;;
70467;SDS011;57934;51.532;7.684;2022-12-31T04:46:59;2.63;;;0.38;;
70467;SDS011;57934;51.532;7.684;2022-12-31T04:49:25;0.40;;;0.30;;
70467;SDS011;57934;51.532;7.684;2022-12-31T04:51:51;1.85;;;0.30;;
70467;SDS011;57934;51.532;7.684;2022-12-31T04:54:17;1.23;;;0.55;;
70467;SDS011;57934;51.532;7.684;2022-12-31T04:56:43;0.20;;;0.20;;
70467;SDS011;57934;51.532;7.684;2022-12-31T04:59:09;3.17;;;0.47;;
70467;SDS011;57934;51.532;7.684;2022-12-31T05:01:36;0.70;;;0.20;;
70467;SDS011;57934;51.532;7.684;2022-12-31T05:04:03;0.40;;;0.28;;
70467;SDS011;57934;51.532;7.684;2022-12-31T05:06:30;1.20;;;0.22;;
70467;SDS011;57934;51.532;7.684;2022-12-31T05:08:56;0.35;;;0.20;;
70467;SDS011;57934;51.532;7.684;2022-12-31T05:11:22;3.80;;;0.25;;
70467;SDS011;57934;51.532;7.684;2022-12-31T05:13:47;0.55;;;0.30;;
70467;SDS011;57934;51.532;7.684;2022-12-31T05:16:13;0.20;;;0.20;;
70467;SDS011;57934;51.532;7.684;2022-12-31T05:18:40;0.28;;;0.28;;
70467;SDS011;57934;51.532;7.684;2022-12-31T05:21:06;0.20;;;0.20;;
70467;SDS011;57934;51.532;7.684;2022-12-31T05:23:33;0.63;;;0.20;;
70467;SDS011;57934;51.532;7.684;2022-12-31T05:25:59;1.25;;;0.20;;
70467;SDS011;57934;51.532;7.684;2022-12-31T05:28:26;0.40;;;0.10;;
70467;SDS011;57934;51.532;7.684;2022-12-31T05:30:52;1.63;;;0.20;;
70467;SDS011;57934;51.532;7.684;2022-12-31T05:33:18;0.20;;;0.20;;
70467;SDS011;57934;51.532;7.684;2022-12-31T05:35:45;3.92;;;0.40;;
70467;SDS011;57934;51.532;7.684;2022-12-31T05:38:11;0.28;;;0.20;;
70467;SDS011;57934;51.532;7.684;2022-12-31T05:40:37;1.23;;;0.30;;
70467;SDS011;57934;51.532;7.684;2022-12-31T05:43:03;0.73;;;0.20;;
70467;SDS011;57934;51.532;7.684;2022-12-31T05:45:29;3.30;;;0.43;;
70467;SDS011;57934;51.532;7.684;2022-12-31T05:47:55;0.50;;;0.30;;
70467;SDS011;57934;51.532;7.684;2022-12-31T05:50:21;0.43;;;0.28;;
70467;SDS011;57934;51.532;7.684;2022-12-31T05:52:54;1.02;;;0.20;;
70467;SDS011;57934;51.532;7.684;2022-12-31T05:55:20;1.25;;;0.40;;
70467;SDS011;57934;51.532;7.684;2022-12-31T05:57:46;2.47;;;0.40;;
70467;SDS011;57934;51.532;7.684;2022-12-31T06:00:13;0.88;;;0.20;;
70467;SDS011;57934;51.532;7.684;2022-12-31T06:02:39;1.80;;;0.77;;
70467;SDS011;57934;51.532;7.684;2022-12-31T06:05:05;0.17;;;0.17;;
70467;SDS011;57934;51.532;7.684;2022-12-31T06:07:32;0.52;;;0.20;;
70467;SDS011;57934;51.532;7.684;2022-12-31T06:09:58;1.98;;;0.40;;
70467;SDS011;57934;51.532;7.684;2022-12-31T06:12:24;0.30;;;0.22;;
70467;SDS011;57934;51.532;7.684;2022-12-31T06:14:50;0.40;;;0.30;;
70467;SDS011;57934;51.532;7.684;2022-12-31T06:17:16;4.18;;;0.60;;
70467;SDS011;57934;51.532;7.684;2022-12-31T06:19:42;0.55;;;0.40;;
70467;SDS011;57934;51.532;7.684;2022-12-31T06:22:08;0.63;;;0.40;;
70467;SDS011;57934;51.532;7.684;2022-12-31T06:24:34;3.05;;;0.40;;
70467;SDS011;57934;51.532;7.684;2022-12-31T06:27:00;0.82;;;0.20;;
70467;SDS011;57934;51.532;7.684;2022-12-31T06:29:26;0.63;;;0.30;;
70467;SDS011;57934;51.532;7.684;2022-12-31T06:31:52;1.85;;;0.32;;
70467;SDS011;57934;51.532;7.684;2022-12-31T06:34:18;0.80;;;0.50;;
70467;SDS011;57934;51.532;7.684;2022-12-31T06:36:44;1.20;;;0.38;;
70467;SDS011;57934;51.532;7.684;2022-12-31T06:39:10;0.77;;;0.30;;
70467;SDS011;57934;51.532;7.684;2022-12-31T06:41:36;2.55;;;0.55;;
70467;SDS011;57934;51.532;7.684;2022-12-31T06:44:02;1.80;;;0.60;;
70467;SDS011;57934;51.532;7.684;2022-12-31T06:46:28;1.38;;;0.28;;
70467;SDS011;57934;51.532;7.684;2022-12-31T06:48:54;3.13;;;0.38;;
70467;SDS011;57934;51.532;7.684;2022-12-31T06:51:20;2.17;;;0.30;;
70467;SDS011;57934;51.532;7.684;2022-12-31T06:53:47;1.33;;;0.40;;
70467;SDS011;57934;51.532;7.684;2022-12-31T06:56:16;0.68;;;0.45;;
70467;SDS011;57934;51.532;7.684;2022-12-31T06:58:44;1.08;;;0.35;;
70467;SDS011;57934;51.532;7.684;2022-12-31T07:09:39;1.58;;;0.40;;
70467;SDS011;57934;51.532;7.684;2022-12-31T07:12:23;1.50;;;0.45;;
70467;SDS011;57934;51.532;7.684;2022-12-31T07:18:23;1.02;;;0.35;;
70467;SDS011;57934;51.532;7.684;2022-12-31T07:20:53;2.35;;;0.63;;
70467;SDS011;57934;51.532;7.684;2022-12-31T07:23:19;2.35;;;0.60;;
70467;SDS011;57934;51.532;7.684;2022-12-31T07:25:50;2.58;;;0.60;;
70467;SDS011;57934;51.532;7.684;2022-12-31T07:34:25;1.75;;;0.75;;
70467;SDS011;57934;51.532;7.684;2022-12-31T07:37:21;4.47;;;0.60;;
70467;SDS011;57934;51.532;7.684;2022-12-31T07:40:08;1.83;;;0.40;;
70467;SDS011;57934;51.532;7.684;2022-12-31T07:42:56;1.52;;;0.60;;
70467;SDS011;57934;51.532;7.684;2022-12-31T07:45:30;2.45;;;0.55;;
70467;SDS011;57934;51.532;7.684;2022-12-31T07:48:13;1.02;;;0.40;;
70467;SDS011;57934;51.532;7.684;2022-12-31T07:50:46;4.60;;;0.60;;
70467;SDS011;57934;51.532;7.684;2022-12-31T07:53:12;2.22;;;0.70;;
70467;SDS011;57934;51.532;7.684;2022-12-31T07:55:39;0.98;;;0.30;;
70467;SDS011;57934;51.532;7.684;2022-12-31T07:58:07;1.85;;;0.40;;
70467;SDS011;57934;51.532;7.684;2022-12-31T08:00:46;0.98;;;0.43;;
70467;SDS011;57934;51.532;7.684;2022-12-31T08:03:16;0.85;;;0.35;;
70467;SDS011;57934;51.532;7.684;2022-12-31T08:08:35;0.80;;;0.40;;
70467;SDS011;57934;51.532;7.684;2022-12-31T08:13:48;1.58;;;0.47;;
70467;SDS011;57934;51.532;7.684;2022-12-31T08:16:17;1.55;;;0.50;;
70467;SDS011;57934;51.532;7.684;2022-12-31T08:18:43;3.67;;;0.40;;
70467;SDS011;57934;51.532;7.684;2022-12-31T08:21:16;2.92;;;0.90;;
70467;SDS011;57934;51.532;7.684;2022-12-31T08:24:00;0.77;;;0.40;;
70467;SDS011;57934;51.532;7.684;2022-12-31T08:32:30;0.45;;;0.30;;
70467;SDS011;57934;51.532;7.684;2022-12-31T08:37:46;1.60;;;0.45;;
70467;SDS011;57934;51.532;7.684;2022-12-31T08:45:57;0.90;;;0.38;;
70467;SDS011;57934;51.532;7.684;2022-12-31T08:50:57;0.95;;;0.60;;
70467;SDS011;57934;51.532;7.684;2022-12-31T08:53:23;1.52;;;0.50;;
70467;SDS011;57934;51.532;7.684;2022-12-31T08:55:51;4.50;;;0.50;;
70467;SDS011;57934;51.532;7.684;2022-12-31T08:58:41;12.07;;;0.90;;
70467;SDS011;57934;51.532;7.684;2022-12-31T09:01:13;1.40;;;0.70;;
70467;SDS011;57934;51.532;7.684;2022-12-31T09:04:01;1.73;;;0.63;;
70467;SDS011;57934;51.532;7.684;2022-12-31T09:06:37;3.20;;;0.60;;
70467;SDS011;57934;51.532;7.684;2022-12-31T09:12:55;2.60;;;0.68;;
70467;SDS011;57934;51.532;7.684;2022-12-31T09:17:48;1.90;;;0.50;;
70467;SDS011;57934;51.532;7.684;2022-12-31T09:22:48;1.67;;;0.50;;
70467;SDS011;57934;51.532;7.684;2022-12-31T09:25:16;2.53;;;0.50;;
70467;SDS011;57934;51.532;7.684;2022-12-31T09:30:25;1.75;;;0.85;;
70467;SDS011;57934;51.532;7.684;2022-12-31T09:35:36;1.48;;;0.93;;
70467;SDS011;57934;51.532;7.684;2022-12-31T09:41:36;1.42;;;0.60;;
70467;SDS011;57934;51.532;7.684;2022-12-31T10:00:49;3.65;;;0.70;;
70467;SDS011;57934;51.532;7.684;2022-12-31T10:03:29;1.13;;;0.65;;
70467;SDS011;57934;51.532;7.684;2022-12-31T10:09:02;2.15;;;0.60;;
70467;SDS011;57934;51.532;7.684;2022-12-31T10:28:33;4.68;;;0.70;;
70467;SDS011;57934;51.532;7.684;2022-12-31T10:31:24;0.98;;;0.50;;
70467;SDS011;57934;51.532;7.684;2022-12-31T11:02:57;3.50;;;0.88;;
70467;SDS011;57934;51.532;7.684;2022-12-31T11:19:56;2.90;;;0.93;;
70467;SDS011;57934;51.532;7.684;2022-12-31T11:25:05;3.42;;;0.90;;
70467;SDS011;57934;51.532;7.684;2022-12-31T11:35:54;4.07;;;0.90;;
70467;SDS011;57934;51.532;7.684;2022-12-31T11:38:34;3.25;;;0.82;;
70467;SDS011;57934;51.532;7.684;2022-12-31T11:50:22;3.70;;;1.00;;
70467;SDS011;57934;51.532;7.684;2022-12-31T11:58:44;2.40;;;0.80;;
70467;SDS011;57934;51.532;7.684;2022-12-31T12:04:00;2.22;;;0.60;;
70467;SDS011;57934;51.532;7.684;2022-12-31T12:06:28;2.63;;;0.90;;
70467;SDS011;57934;51.532;7.684;2022-12-31T12:09:00;4.53;;;0.90;;
70467;SDS011;57934;51.532;7.684;2022-12-31T12:11:31;4.00;;;0.80;;
70467;SDS011;57934;51.532;7.684;2022-12-31T12:14:18;2.28;;;0.70;;
70467;SDS011;57934;51.532;7.684;2022-12-31T12:16:45;2.33;;;0.82;;
70467;SDS011;57934;51.532;7.684;2022-12-31T12:19:17;1.45;;;0.77;;
70467;SDS011;57934;51.532;7.684;2022-12-31T12:21:44;1.33;;;0.60;;
70467;SDS011;57934;51.532;7.684;2022-12-31T12:24:34;2.90;;;0.80;;
70467;SDS011;57934;51.532;7.684;2022-12-31T12:26:59;4.32;;;0.90;;
70467;SDS011;57934;51.532;7.684;2022-12-31T12:29:27;2.72;;;0.80;;
70467;SDS011;57934;51.532;7.684;2022-12-31T12:32:17;3.33;;;0.77;;
70467;SDS011;57934;51.532;7.684;2022-12-31T12:34:45;5.72;;;0.80;;
70467;SDS011;57934;51.532;7.684;2022-12-31T12:42:27;2.70;;;0.60;;
70467;SDS011;57934;51.532;7.684;2022-12-31T12:48:18;5.72;;;0.98;;
70467;SDS011;57934;51.532;7.684;2022-12-31T12:50:50;5.53;;;0.90;;
70467;SDS011;57934;51.532;7.684;2022-12-31T12:54:00;4.25;;;0.95;;
70467;SDS011;57934;51.532;7.684;2022-12-31T12:56:07;5.80;;;1.05;;
70467;SDS011;57934;51.532;7.684;2022-12-31T13:04:32;3.35;;;0.90;;
70467;SDS011;57934;51.532;7.684;2022-12-31T13:10:14;4.47;;;1.20;;
70467;SDS011;57934;51.532;7.684;2022-12-31T13:13:08;4.18;;;1.20;;
70467;SDS011;57934;51.532;7.684;2022-12-31T13:21:28;5.40;;;1.58;;
70467;SDS011;57934;51.532;7.684;2022-12-31T13:23:56;3.97;;;1.10;;
70467;SDS011;57934;51.532;7.684;2022-12-31T13:26:37;3.10;;;1.10;;
70467;SDS011;57934;51.532;7.684;2022-12-31T13:29:14;2.70;;;1.20;;
70467;SDS011;57934;51.532;7.684;2022-12-31T13:31:44;5.70;;;1.25;;
70467;SDS011;57934;51.532;7.684;2022-12-31T13:36:41;1.98;;;1.10;;
70467;SDS011;57934;51.532;7.684;2022-12-31T13:39:15;4.25;;;1.25;;
70467;SDS011;57934;51.532;7.684;2022-12-31T13:41:58;5.25;;;1.30;;
70467;SDS011;57934;51.532;7.684;2022-12-31T13:44:32;6.70;;;1.42;;
70467;SDS011;57934;51.532;7.684;2022-12-31T13:52:03;4.18;;;1.77;;
70467;SDS011;57934;51.532;7.684;2022-12-31T13:57:33;2.53;;;1.30;;
70467;SDS011;57934;51.532;7.684;2022-12-31T14:00:03;6.75;;;1.48;;
70467;SDS011;57934;51.532;7.684;2022-12-31T14:05:11;3.25;;;1.38;;
70467;SDS011;57934;51.532;7.684;2022-12-31T14:07:46;8.32;;;1.50;;
70467;SDS011;57934;51.532;7.684;2022-12-31T14:10:18;3.28;;;1.40;;
70467;SDS011;57934;51.532;7.684;2022-12-31T14:16:07;5.50;;;1.63;;
70467;SDS011;57934;51.532;7.684;2022-12-31T14:23:51;3.05;;;1.30;;
70467;SDS011;57934;51.532;7.684;2022-12-31T14:26:30;7.18;;;1.65;;
70467;SDS011;57934;51.532;7.684;2022-12-31T14:29:04;8.10;;;1.55;;
70467;SDS011;57934;51.532;7.684;2022-12-31T14:34:28;5.15;;;1.55;;
70467;SDS011;57934;51.532;7.684;2022-12-31T14:37:01;3.15;;;1.30;;
70467;SDS011;57934;51.532;7.684;2022-12-31T14:39:43;3.47;;;1.10;;
70467;SDS011;57934;51.532;7.684;2022-12-31T14:42:24;4.22;;;1.33;;
70467;SDS011;57934;51.532;7.684;2022-12-31T14:45:03;3.40;;;1.20;;
70467;SDS011;57934;51.532;7.684;2022-12-31T14:50:25;1.80;;;1.20;;
70467;SDS011;57934;51.532;7.684;2022-12-31T14:55:31;2.72;;;1.30;;
70467;SDS011;57934;51.532;7.684;2022-12-31T14:58:00;4.05;;;1.23;;
70467;SDS011;57934;51.532;7.684;2022-12-31T15:03:56;3.95;;;1.20;;
70467;SDS011;57934;51.532;7.684;2022-12-31T15:08:58;5.25;;;1.40;;
70467;SDS011;57934;51.532;7.684;2022-12-31T15:12:00;6.15;;;1.92;;
70467;SDS011;57934;51.532;7.684;2022-12-31T15:14:55;5.03;;;1.50;;
70467;SDS011;57934;51.532;7.684;2022-12-31T15:23:21;6.30;;;1.42;;
70467;SDS011;57934;51.532;7.684;2022-12-31T15:25:50;2.20;;;1.30;;
70467;SDS011;57934;51.532;7.684;2022-12-31T15:28:24;7.00;;;1.70;;
70467;SDS011;57934;51.532;7.684;2022-12-31T15:31:03;5.43;;;1.30;;
70467;SDS011;57934;51.532;7.684;2022-12-31T15:33:58;1.90;;;1.48;;
70467;SDS011;57934;51.532;7.684;2022-12-31T15:36:36;4.63;;;1.60;;
70467;SDS011;57934;51.532;7.684;2022-12-31T15:41:45;2.53;;;1.23;;
70467;SDS011;57934;51.532;7.684;2022-12-31T15:46:43;2.33;;;1.30;;
70467;SDS011;57934;51.532;7.684;2022-12-31T15:49:16;2.85;;;1.38;;
70467;SDS011;57934;51.532;7.684;2022-12-31T15:51:50;5.40;;;1.58;;
70467;SDS011;57934;51.532;7.684;2022-12-31T15:54:21;3.13;;;1.50;;
70467;SDS011;57934;51.532;7.684;2022-12-31T15:56:49;4.15;;;1.60;;
70467;SDS011;57934;51.532;7.684;2022-12-31T15:59:17;2.40;;;1.33;;
70467;SDS011;57934;51.532;7.684;2022-12-31T16:01:45;6.55;;;1.30;;
70467;SDS011;57934;51.532;7.684;2022-12-31T16:04:25;5.07;;;1.33;;
70467;SDS011;57934;51.532;7.684;2022-12-31T16:06:53;3.20;;;1.20;;
70467;SDS011;57934;51.532;7.684;2022-12-31T16:09:24;4.65;;;1.20;;
70467;SDS011;57934;51.532;7.684;2022-12-31T16:11:56;2.33;;;1.40;;
70467;SDS011;57934;51.532;7.684;2022-12-31T16:14:24;1.67;;;1.15;;
70467;SDS011;57934;51.532;7.684;2022-12-31T16:16:58;1.88;;;1.40;;
70467;SDS011;57934;51.532;7.684;2022-12-31T16:19:28;3.10;;;1.13;;
70467;SDS011;57934;51.532;7.684;2022-12-31T16:21:56;3.42;;;1.25;;
70467;SDS011;57934;51.532;7.684;2022-12-31T16:24:32;3.22;;;1.17;;
70467;SDS011;57934;51.532;7.684;2022-12-31T16:26:59;4.45;;;1.30;;
70467;SDS011;57934;51.532;7.684;2022-12-31T16:29:27;4.20;;;1.08;;
70467;SDS011;57934;51.532;7.684;2022-12-31T16:31:55;4.35;;;1.60;;
70467;SDS011;57934;51.532;7.684;2022-12-31T16:34:22;5.90;;;1.30;;
70467;SDS011;57934;51.532;7.684;2022-12-31T16:36:57;3.05;;;1.10;;
70467;SDS011;57934;51.532;7.684;2022-12-31T16:39:35;1.25;;;0.93;;
70467;SDS011;57934;51.532;7.684;2022-12-31T16:44:41;7.30;;;1.48;;
70467;SDS011;57934;51.532;7.684;2022-12-31T16:47:07;2.88;;;1.20;;
70467;SDS011;57934;51.532;7.684;2022-12-31T16:49:39;2.88;;;1.20;;
70467;SDS011;57934;51.532;7.684;2022-12-31T16:52:26;3.72;;;1.38;;
70467;SDS011;57934;51.532;7.684;2022-12-31T16:54:57;3.58;;;1.20;;
70467;SDS011;57934;51.532;7.684;2022-12-31T16:57:24;3.50;;;0.93;;
70467;SDS011;57934;51.532;7.684;2022-12-31T16:59:54;4.50;;;1.52;;
70467;SDS011;57934;51.532;7.684;2022-12-31T17:02:26;3.30;;;1.40;;
70467;SDS011;57934;51.532;7.684;2022-12-31T17:04:59;3.17;;;1.67;;
70467;SDS011;57934;51.532;7.684;2022-12-31T17:10:02;4.45;;;1.17;;
70467;SDS011;57934;51.532;7.684;2022-12-31T17:12:42;4.28;;;1.35;;
70467;SDS011;57934;51.532;7.684;2022-12-31T17:15:21;3.42;;;1.30;;
70467;SDS011;57934;51.532;7.684;2022-12-31T17:18:05;4.60;;;1.65;;
70467;SDS011;57934;51.532;7.684;2022-12-31T17:20:32;16.88;;;5.35;;
70467;SDS011;57934;51.532;7.684;2022-12-31T17:22:59;12.60;;;4.82;;
70467;SDS011;57934;51.532;7.684;2022-12-31T17:25:30;5.05;;;1.83;;
70467;SDS011;57934;51.532;7.684;2022-12-31T17:27:59;4.22;;;1.67;;
70467;SDS011;57934;51.532;7.684;2022-12-31T17:33:02;1.70;;;1.52;;
70467;SDS011;57934;51.532;7.684;2022-12-31T17:43:33;3.53;;;1.45;;
70467;SDS011;57934;51.532;7.684;2022-12-31T17:46:00;2.00;;;1.38;;
70467;SDS011;57934;51.532;7.684;2022-12-31T17:48:28;2.10;;;1.45;;
70467;SDS011;57934;51.532;7.684;2022-12-31T17:50:55;4.00;;;1.73;;
70467;SDS011;57934;51.532;7.684;2022-12-31T17:53:22;2.95;;;1.40;;
70467;SDS011;57934;51.532;7.684;2022-12-31T17:55:50;4.57;;;1.58;;
70467;SDS011;57934;51.532;7.684;2022-12-31T17:58:23;4.03;;;1.42;;
70467;SDS011;57934;51.532;7.684;2022-12-31T18:00:56;4.25;;;1.30;;
70467;SDS011;57934;51.532;7.684;2022-12-31T18:03:23;3.95;;;1.20;;
70467;SDS011;57934;51.532;7.684;2022-12-31T18:05:49;6.60;;;1.35;;
70467;SDS011;57934;51.532;7.684;2022-12-31T18:08:15;3.47;;;1.75;;
70467;SDS011;57934;51.532;7.684;2022-12-31T18:10:41;4.55;;;1.80;;
70467;SDS011;57934;51.532;7.684;2022-12-31T18:13:13;6.10;;;1.45;;
70467;SDS011;57934;51.532;7.684;2022-12-31T18:15:42;4.70;;;1.80;;
70467;SDS011;57934;51.532;7.684;2022-12-31T18:18:15;3.13;;;1.58;;
70467;SDS011;57934;51.532;7.684;2022-12-31T18:20:44;4.18;;;1.50;;
70467;SDS011;57934;51.532;7.684;2022-12-31T18:23:13;4.15;;;1.48;;
70467;SDS011;57934;51.532;7.684;2022-12-31T18:25:43;5.57;;;1.67;;
70467;SDS011;57934;51.532;7.684;2022-12-31T18:28:09;4.60;;;1.80;;
70467;SDS011;57934;51.532;7.684;2022-12-31T18:30:36;3.70;;;1.95;;
70467;SDS011;57934;51.532;7.684;2022-12-31T18:33:02;3.95;;;1.63;;
70467;SDS011;57934;51.532;7.684;2022-12-31T18:35:31;7.65;;;2.22;;
70467;SDS011;57934;51.532;7.684;2022-12-31T18:37:57;3.72;;;1.60;;
70467;SDS011;57934;51.532;7.684;2022-12-31T18:40:24;4.22;;;1.42;;
70467;SDS011;57934;51.532;7.684;2022-12-31T18:42:50;5.03;;;1.77;;
70467;SDS011;57934;51.532;7.684;2022-12-31T18:45:17;3.78;;;1.58;;
70467;SDS011;57934;51.532;7.684;2022-12-31T18:47:45;6.20;;;1.63;;
70467;SDS011;57934;51.532;7.684;2022-12-31T18:50:14;4.78;;;1.70;;
70467;SDS011;57934;51.532;7.684;2022-12-31T18:52:41;5.05;;;1.50;;
70467;SDS011;57934;51.532;7.684;2022-12-31T18:55:12;5.63;;;1.90;;
70467;SDS011;57934;51.532;7.684;2022-12-31T18:58:02;5.25;;;1.70;;
70467;SDS011;57934;51.532;7.684;2022-12-31T19:00:28;2.22;;;1.63;;
70467;SDS011;57934;51.532;7.684;2022-12-31T19:02:54;3.88;;;1.63;;
70467;SDS011;57934;51.532;7.684;2022-12-31T19:05:27;4.82;;;1.60;;
70467;SDS011;57934;51.532;7.684;2022-12-31T19:07:55;3.53;;;1.60;;
70467;SDS011;57934;51.532;7.684;2022-12-31T19:10:22;4.68;;;1.65;;
70467;SDS011;57934;51.532;7.684;2022-12-31T19:12:49;6.45;;;1.60;;
70467;SDS011;57934;51.532;7.684;2022-12-31T19:15:23;6.25;;;1.95;;
70467;SDS011;57934;51.532;7.684;2022-12-31T19:17:52;4.32;;;1.55;;
70467;SDS011;57934;51.532;7.684;2022-12-31T19:20:18;2.10;;;1.50;;
70467;SDS011;57934;51.532;7.684;2022-12-31T19:22:44;7.95;;;2.20;;
70467;SDS011;57934;51.532;7.684;2022-12-31T19:25:17;9.32;;;4.90;;
70467;SDS011;57934;51.532;7.684;2022-12-31T19:27:45;5.68;;;2.05;;
70467;SDS011;57934;51.532;7.684;2022-12-31T19:30:14;4.03;;;1.77;;
70467;SDS011;57934;51.532;7.684;2022-12-31T19:32:42;4.28;;;1.63;;
70467;SDS011;57934;51.532;7.684;2022-12-31T19:35:09;6.90;;;1.85;;
70467;SDS011;57934;51.532;7.684;2022-12-31T19:37:36;5.00;;;1.77;;
70467;SDS011;57934;51.532;7.684;2022-12-31T19:40:02;5.95;;;2.10;;
70467;SDS011;57934;51.532;7.684;2022-12-31T19:42:29;4.30;;;1.63;;
70467;SDS011;57934;51.532;7.684;2022-12-31T19:44:55;4.90;;;1.60;;
70467;SDS011;57934;51.532;7.684;2022-12-31T19:47:21;5.43;;;1.65;;
70467;SDS011;57934;51.532;7.684;2022-12-31T19:49:47;6.68;;;1.45;;
70467;SDS011;57934;51.532;7.684;2022-12-31T19:52:13;6.18;;;1.90;;
70467;SDS011;57934;51.532;7.684;2022-12-31T19:54:39;4.72;;;1.75;;